createdAt,value
2023-04-02T00:01:37.204Z,11.20
2023-04-02T00:05:56.242Z,11.09
2023-04-02T00:10:40.041Z,11.17
2023-04-02T00:14:55.206Z,11.08
2023-04-02T00:19:17.335Z,10.93
2023-04-02T00:23:29.682Z,10.94
2023-04-02T00:27:43.232Z,10.90
2023-04-02T00:31:59.404Z,10.77
2023-04-02T00:36:13.501Z,10.79
2023-04-02T00:40:32.293Z,10.75
2023-04-02T00:44:47.099Z,10.68
2023-04-02T00:49:23.962Z,10.71
2023-04-02T00:53:37.199Z,10.64
2023-04-02T00:57:51.407Z,10.64
2023-04-02T01:02:17.723Z,10.58
2023-04-02T01:06:37.754Z,10.51
2023-04-02T01:11:03.975Z,10.34
2023-04-02T01:15:24.656Z,10.29
2023-04-02T01:19:49.361Z,10.40
2023-04-02T01:24:05.910Z,10.43
2023-04-02T01:28:51.822Z,10.33
2023-04-02T01:33:05.930Z,10.38
2023-04-02T01:37:29.107Z,10.98
2023-04-02T01:41:54.485Z,11.03
2023-04-02T01:46:34.654Z,11.00
2023-04-02T01:50:50.241Z,10.97
2023-04-02T01:55:03.971Z,10.98
2023-04-02T01:59:20.409Z,11.03
2023-04-02T02:03:44.058Z,11.08
2023-04-02T02:07:58.971Z,10.97
2023-04-02T02:12:15.721Z,10.96
2023-04-02T02:16:30.627Z,10.95
2023-04-02T02:20:43.235Z,11.11
2023-04-02T02:24:57.913Z,11.11
2023-04-02T02:29:16.113Z,10.96
2023-04-02T02:33:37.576Z,11.05
2023-04-02T02:38:06.744Z,11.22
2023-04-02T02:42:40.041Z,10.89
2023-04-02T02:47:17.680Z,10.48
2023-04-02T02:51:47.508Z,10.43
2023-04-02T02:56:04.945Z,10.12
2023-04-02T03:00:25.007Z,10.20
2023-04-02T03:04:39.374Z,9.96
2023-04-02T03:09:13.766Z,9.66
2023-04-02T03:13:35.734Z,9.60
2023-04-02T03:18:00.785Z,9.72
2023-04-02T03:23:17.944Z,9.80
2023-04-02T03:27:41.003Z,9.84
2023-04-02T03:32:36.813Z,9.85
2023-04-02T03:37:02.514Z,10.04
2023-04-02T03:41:32.424Z,9.99
2023-04-02T03:45:52.041Z,10.19
2023-04-02T03:50:26.016Z,10.11
2023-04-02T03:54:54.163Z,10.20
2023-04-02T03:59:16.579Z,10.35
2023-04-02T04:03:31.603Z,10.25
2023-04-02T04:07:45.521Z,10.27
2023-04-02T04:12:10.785Z,10.15
2023-04-02T04:16:30.335Z,10.31
2023-04-02T04:20:50.808Z,10.11
2023-04-02T04:25:08.063Z,10.00
2023-04-02T04:29:40.967Z,9.87
2023-04-02T04:34:03.369Z,9.76
2023-04-02T04:38:28.514Z,9.82
2023-04-02T04:42:45.111Z,9.81
2023-04-02T04:47:20.831Z,10.15
2023-04-02T04:51:58.939Z,10.00
2023-04-02T04:56:19.306Z,9.87
2023-04-02T05:01:00.848Z,9.95
2023-04-02T05:05:25.922Z,9.91
2023-04-02T05:09:54.387Z,9.73
2023-04-02T05:14:41.248Z,9.73
2023-04-02T05:19:07.057Z,9.66
2023-04-02T05:23:30.051Z,9.59
2023-04-02T05:27:53.457Z,9.63
2023-04-02T05:32:25.272Z,9.67
2023-04-02T05:36:38.694Z,9.72
2023-04-02T05:41:08.622Z,9.78
2023-04-02T05:45:44.567Z,9.81
2023-04-02T05:50:17.369Z,9.96
2023-04-02T05:54:43.881Z,9.90
2023-04-02T05:58:59.571Z,10.06
2023-04-02T06:04:07.398Z,10.11
2023-04-02T06:08:26.947Z,10.16
2023-04-02T06:12:54.951Z,10.25
2023-04-02T06:17:07.719Z,10.38
2023-04-02T06:21:22.661Z,10.36
2023-04-02T06:25:43.933Z,10.48
2023-04-02T06:30:03.174Z,10.58
2023-04-02T06:34:19.733Z,10.73
2023-04-02T06:38:42.515Z,10.99
2023-04-02T06:43:00.113Z,11.05
2023-04-02T06:47:45.155Z,11.17
2023-04-02T06:52:06.664Z,11.34
2023-04-02T06:56:37.688Z,11.52
2023-04-02T07:00:51.657Z,11.85
2023-04-02T07:05:13.183Z,11.73
2023-04-02T07:09:31.381Z,11.81
2023-04-02T07:13:46.606Z,12.05
2023-04-02T07:17:59.847Z,12.68
2023-04-02T07:22:13.924Z,12.43
2023-04-02T07:26:29.434Z,12.82
2023-04-02T07:30:43.643Z,12.94
2023-04-02T07:34:56.100Z,13.35
2023-04-02T07:39:08.533Z,14.11
2023-04-02T07:43:22.155Z,14.28
2023-04-02T07:47:34.557Z,14.21
2023-04-02T07:51:47.762Z,14.18
2023-04-02T07:56:02.310Z,14.53
2023-04-02T08:00:16.010Z,16.13
2023-04-02T08:04:28.581Z,15.51
2023-04-02T08:08:41.461Z,15.24
2023-04-02T08:12:53.820Z,15.70
2023-04-02T08:17:06.564Z,16.04
2023-04-02T08:21:18.992Z,16.62
2023-04-02T08:25:31.754Z,17.26
2023-04-02T08:29:44.225Z,16.51
2023-04-02T08:33:57.267Z,16.04
2023-04-02T08:38:14.848Z,17.26
2023-04-02T08:42:32.609Z,16.63
2023-04-02T08:46:48.084Z,17.54
2023-04-02T08:51:02.457Z,17.22
2023-04-02T08:55:30.280Z,17.15
2023-04-02T08:59:44.800Z,17.20
2023-04-02T09:03:59.591Z,18.33
2023-04-02T09:08:24.871Z,18.15
2023-04-02T09:12:37.264Z,19.31
2023-04-02T09:16:56.848Z,19.78
2023-04-02T09:21:21.278Z,19.97
2023-04-02T09:25:34.229Z,18.49
2023-04-02T09:29:49.753Z,19.60
2023-04-02T09:34:02.942Z,18.96
2023-04-02T09:38:33.078Z,19.23
2023-04-02T09:42:45.883Z,20.03
2023-04-02T09:47:07.673Z,20.68
2023-04-02T09:51:23.198Z,19.77
2023-04-02T09:55:36.153Z,19.94
2023-04-02T09:59:48.719Z,20.58
2023-04-02T10:04:03.762Z,20.00
2023-04-02T10:08:30.472Z,20.40
2023-04-02T10:12:46.441Z,21.67
2023-04-02T10:17:08.796Z,21.75
2023-04-02T10:21:27.651Z,21.81
2023-04-02T10:25:47.261Z,20.64
2023-04-02T10:30:25.935Z,20.36
2023-04-02T10:35:02.568Z,20.16
2023-04-02T10:39:33.500Z,19.37
2023-04-02T10:44:09.585Z,18.51
2023-04-02T10:48:36.402Z,19.42
2023-04-02T10:53:03.295Z,20.22
2023-04-02T10:57:37.374Z,19.64
2023-04-02T11:01:51.971Z,20.04
2023-04-02T11:06:14.773Z,20.88
2023-04-02T11:10:32.260Z,20.64
2023-04-02T11:14:44.607Z,21.82
2023-04-02T11:19:25.642Z,22.74
2023-04-02T11:24:02.547Z,23.24
2023-04-02T11:28:21.115Z,22.61
2023-04-02T11:32:43.253Z,22.94
2023-04-02T11:36:56.591Z,21.16
2023-04-02T11:41:09.293Z,22.51
2023-04-02T11:45:21.666Z,21.99
2023-04-02T11:49:40.298Z,24.11
2023-04-02T11:53:54.643Z,25.65
2023-04-02T11:58:25.669Z,25.23
2023-04-02T12:03:03.757Z,24.77
2023-04-02T12:07:52.551Z,23.80
2023-04-02T12:12:25.744Z,21.06
2023-04-02T12:16:38.406Z,21.36
2023-04-02T12:20:56.682Z,22.06
2023-04-02T12:25:22.084Z,20.95
2023-04-02T12:29:34.630Z,21.19
2023-04-02T12:33:47.124Z,20.83
2023-04-02T12:37:59.814Z,20.05
2023-04-02T12:42:36.619Z,19.60
2023-04-02T12:46:50.277Z,20.23
2023-04-02T12:51:04.560Z,21.33
2023-04-02T12:55:25.804Z,21.10
2023-04-02T12:59:39.342Z,20.79
2023-04-02T13:04:15.474Z,21.26
2023-04-02T13:08:43.051Z,21.21
2023-04-02T13:13:01.307Z,20.78
2023-04-02T13:17:46.958Z,21.08
2023-04-02T13:22:02.021Z,20.99
2023-04-02T13:26:25.065Z,20.77
2023-04-02T13:30:37.694Z,20.93
2023-04-02T13:34:50.218Z,20.01
2023-04-02T13:39:02.676Z,20.00
2023-04-02T13:43:20.569Z,20.49
2023-04-02T13:47:32.945Z,20.65
2023-04-02T13:52:00.174Z,20.63
2023-04-02T13:56:15.712Z,20.54
2023-04-02T14:00:28.084Z,20.21
2023-04-02T14:04:46.627Z,20.39
2023-04-02T14:09:05.316Z,20.39
2023-04-02T14:13:53.237Z,19.47
2023-04-02T14:18:14.536Z,19.84
2023-04-02T14:22:37.616Z,19.42
2023-04-02T14:27:00.158Z,19.32
2023-04-02T14:31:45.072Z,19.14
2023-04-02T14:36:09.674Z,19.18
2023-04-02T14:40:47.033Z,19.17
2023-04-02T14:45:12.951Z,19.25
2023-04-02T14:49:42.044Z,19.10
2023-04-02T14:54:12.746Z,18.75
2023-04-02T14:58:34.259Z,18.66
2023-04-02T15:02:49.495Z,18.06
2023-04-02T15:07:19.154Z,18.48
2023-04-02T15:11:43.698Z,18.72
2023-04-02T15:16:06.463Z,18.66
2023-04-02T15:20:20.906Z,18.55
2023-04-02T15:24:47.998Z,18.40
2023-04-02T15:29:38.833Z,18.35
2023-04-02T15:34:12.523Z,18.21
2023-04-02T15:38:44.238Z,18.14
2023-04-02T15:43:13.408Z,17.92
2023-04-02T15:47:37.488Z,17.65
2023-04-02T15:52:06.036Z,17.24
2023-04-02T15:56:36.708Z,17.24
2023-04-02T16:01:17.649Z,17.32
2023-04-02T16:06:20.829Z,16.88
2023-04-02T16:10:42.865Z,16.81
2023-04-02T16:15:06.310Z,16.63
2023-04-02T16:19:44.350Z,16.49
2023-04-02T16:23:57.245Z,16.40
2023-04-02T16:28:24.341Z,16.32
2023-04-02T16:33:02.949Z,16.10
2023-04-02T16:37:42.944Z,15.99
2023-04-02T16:42:03.129Z,15.85
2023-04-02T16:46:38.345Z,15.70
2023-04-02T16:51:18.188Z,15.45
2023-04-02T16:56:04.509Z,15.37
2023-04-02T17:00:26.510Z,15.37
2023-04-02T17:04:59.358Z,15.35
2023-04-02T17:09:16.233Z,15.25
2023-04-02T17:13:34.582Z,15.26
2023-04-02T17:17:47.099Z,15.16
2023-04-02T17:22:02.961Z,15.11
2023-04-02T17:26:18.510Z,14.99
2023-04-02T17:30:46.284Z,14.82
2023-04-02T17:35:33.531Z,14.67
2023-04-02T17:40:04.382Z,14.53
2023-04-02T17:44:43.141Z,14.53
2023-04-02T17:49:07.969Z,14.37
2023-04-02T17:53:48.921Z,14.34
2023-04-02T17:58:21.276Z,14.18
2023-04-02T18:03:01.767Z,14.20
2023-04-02T18:07:22.717Z,13.95
2023-04-02T18:12:10.419Z,13.83
2023-04-02T18:16:44.633Z,13.76
2023-04-02T18:21:27.666Z,13.81
2023-04-02T18:25:44.083Z,13.86
2023-04-02T18:30:31.450Z,13.78
2023-04-02T18:34:56.384Z,13.64
2023-04-02T18:39:22.488Z,13.66
2023-04-02T18:44:02.759Z,13.55
2023-04-02T18:48:37.422Z,13.54
2023-04-02T18:52:51.261Z,13.55
2023-04-02T18:57:12.003Z,13.62
2023-04-02T19:06:27.391Z,13.58
2023-04-02T19:10:44.459Z,13.49
2023-04-02T19:14:59.926Z,13.45
2023-04-02T19:19:20.040Z,13.28
2023-04-02T19:24:01.090Z,13.28
2023-04-02T19:28:30.804Z,13.12
2023-04-02T19:33:15.563Z,13.03
2023-04-02T19:37:27.898Z,13.10
2023-04-02T19:41:49.927Z,13.06
2023-04-02T19:46:02.989Z,12.98
2023-04-02T19:50:15.661Z,12.93
2023-04-02T19:54:28.196Z,12.91
2023-04-02T19:58:40.786Z,12.82
2023-04-02T20:02:53.513Z,12.65
2023-04-02T20:07:06.013Z,12.52
2023-04-02T20:11:18.628Z,12.41
2023-04-02T20:15:31.072Z,12.37
2023-04-02T20:19:43.542Z,12.39
2023-04-02T20:23:56.886Z,12.47
2023-04-02T20:28:09.341Z,12.52
2023-04-02T20:32:22.026Z,12.43
2023-04-02T20:36:34.773Z,12.38
2023-04-02T20:40:53.080Z,12.42
2023-04-02T20:45:06.557Z,12.31
2023-04-02T20:49:19.060Z,12.11
2023-04-02T20:53:34.687Z,11.90
2023-04-02T20:57:47.810Z,11.91
2023-04-02T21:02:00.213Z,11.92
2023-04-02T21:06:15.157Z,11.92
2023-04-02T21:10:27.681Z,12.00
2023-04-02T21:14:40.508Z,12.07
2023-04-02T21:18:53.482Z,11.96
2023-04-02T21:23:05.917Z,11.99
2023-04-02T21:27:18.335Z,11.87
2023-04-02T21:31:35.125Z,11.90
2023-04-02T21:35:47.747Z,11.75
2023-04-02T21:40:00.197Z,11.60
2023-04-02T21:44:16.928Z,11.61
2023-04-02T21:48:32.544Z,11.70
2023-04-02T21:52:46.187Z,11.69
2023-04-02T21:56:59.627Z,11.71
2023-04-02T22:01:26.060Z,11.65
2023-04-02T22:05:39.939Z,11.69
2023-04-02T22:09:53.686Z,11.58
2023-04-02T22:14:06.228Z,11.48
2023-04-02T22:18:18.572Z,11.70
2023-04-02T22:22:32.168Z,11.68
2023-04-02T22:26:45.607Z,11.63
2023-04-02T22:31:05.021Z,11.56
2023-04-02T22:35:17.596Z,11.48
2023-04-02T22:39:30.109Z,11.48
2023-04-02T22:43:46.700Z,11.45
2023-04-02T22:47:59.136Z,11.31
2023-04-02T22:52:11.591Z,11.16
2023-04-02T22:56:33.065Z,10.97
2023-04-02T23:00:46.676Z,11.04
2023-04-02T23:04:59.092Z,11.30
2023-04-02T23:09:11.656Z,11.26
2023-04-02T23:13:24.127Z,11.22
2023-04-02T23:17:37.895Z,11.12
2023-04-02T23:21:50.453Z,10.96
2023-04-02T23:26:11.634Z,11.03
2023-04-02T23:30:24.123Z,10.93
2023-04-02T23:34:45.113Z,10.86
2023-04-02T23:39:11.064Z,10.89
2023-04-02T23:43:23.444Z,10.92
2023-04-02T23:47:35.941Z,10.79
2023-04-02T23:51:48.414Z,10.92
2023-04-02T23:56:00.908Z,11.07
